sensor_id;sensor_type;location;lat;lon;timestamp;temperature;humidity
3086;DHT22;52812;48.960;9.108;2022-07-29T00:02:10;18.20;99.90
3086;DHT22;52812;48.960;9.108;2022-07-29T00:04:36;18.20;99.90
3086;DHT22;52812;48.960;9.108;2022-07-29T00:07:02;18.20;99.90
3086;DHT22;52812;48.960;9.108;2022-07-29T00:09:28;18.10;99.90
3086;DHT22;52812;48.960;9.108;2022-07-29T00:11:56;18.00;99.90
3086;DHT22;52812;48.960;9.108;2022-07-29T00:14:23;17.90;99.90
3086;DHT22;52812;48.960;9.108;2022-07-29T00:16:49;17.90;99.90
3086;DHT22;52812;48.960;9.108;2022-07-29T00:19:14;17.80;99.90
3086;DHT22;52812;48.960;9.108;2022-07-29T00:21:40;17.90;99.90
3086;DHT22;52812;48.960;9.108;2022-07-29T00:24:06;17.90;99.90
3086;DHT22;52812;48.960;9.108;2022-07-29T00:26:31;18.00;99.90
3086;DHT22;52812;48.960;9.108;2022-07-29T00:29:02;18.00;99.90
3086;DHT22;52812;48.960;9.108;2022-07-29T00:31:28;18.10;99.90
3086;DHT22;52812;48.960;9.108;2022-07-29T00:33:54;18.20;99.90
3086;DHT22;52812;48.960;9.108;2022-07-29T00:36:20;18.10;99.90
3086;DHT22;52812;48.960;9.108;2022-07-29T00:38:50;18.10;99.90
3086;DHT22;52812;48.960;9.108;2022-07-29T00:41:16;18.00;99.90
3086;DHT22;52812;48.960;9.108;2022-07-29T00:43:42;17.90;99.90
3086;DHT22;52812;48.960;9.108;2022-07-29T00:46:08;17.90;99.90
3086;DHT22;52812;48.960;9.108;2022-07-29T00:48:34;17.80;99.90
3086;DHT22;52812;48.960;9.108;2022-07-29T00:51:02;17.70;99.90
3086;DHT22;52812;48.960;9.108;2022-07-29T00:53:27;17.70;99.90
3086;DHT22;52812;48.960;9.108;2022-07-29T00:55:54;17.70;99.90
3086;DHT22;52812;48.960;9.108;2022-07-29T00:58:21;17.60;99.90
3086;DHT22;52812;48.960;9.108;2022-07-29T01:00:46;17.70;99.90
3086;DHT22;52812;48.960;9.108;2022-07-29T01:03:12;17.60;99.90
3086;DHT22;52812;48.960;9.108;2022-07-29T01:05:39;17.60;99.90
3086;DHT22;52812;48.960;9.108;2022-07-29T01:08:06;17.70;99.90
3086;DHT22;52812;48.960;9.108;2022-07-29T01:10:32;17.70;99.90
3086;DHT22;52812;48.960;9.108;2022-07-29T01:12:59;17.70;99.90
3086;DHT22;52812;48.960;9.108;2022-07-29T01:15:26;17.70;99.90
3086;DHT22;52812;48.960;9.108;2022-07-29T01:29:41;17.80;99.90
3086;DHT22;52812;48.960;9.108;2022-07-29T01:32:12;17.80;99.90
3086;DHT22;52812;48.960;9.108;2022-07-29T01:37:55;17.80;99.90
3086;DHT22;52812;48.960;9.108;2022-07-29T01:40:27;17.80;99.90
3086;DHT22;52812;48.960;9.108;2022-07-29T01:42:57;17.80;99.90
3086;DHT22;52812;48.960;9.108;2022-07-29T01:45:27;17.80;99.90
3086;DHT22;52812;48.960;9.108;2022-07-29T01:51:19;17.70;99.90
3086;DHT22;52812;48.960;9.108;2022-07-29T01:54:20;17.70;99.90
3086;DHT22;52812;48.960;9.108;2022-07-29T01:56:49;17.70;99.90
3086;DHT22;52812;48.960;9.108;2022-07-29T01:59:17;17.60;99.90
3086;DHT22;52812;48.960;9.108;2022-07-29T02:01:44;17.60;99.90
3086;DHT22;52812;48.960;9.108;2022-07-29T02:04:12;17.60;99.90
3086;DHT22;52812;48.960;9.108;2022-07-29T02:06:40;17.50;99.90
3086;DHT22;52812;48.960;9.108;2022-07-29T02:09:08;17.50;99.90
3086;DHT22;52812;48.960;9.108;2022-07-29T02:11:36;17.50;99.90
3086;DHT22;52812;48.960;9.108;2022-07-29T02:14:04;17.50;99.90
3086;DHT22;52812;48.960;9.108;2022-07-29T02:16:31;17.50;99.90
3086;DHT22;52812;48.960;9.108;2022-07-29T02:18:58;17.50;99.90
3086;DHT22;52812;48.960;9.108;2022-07-29T02:21:26;17.40;99.90
3086;DHT22;52812;48.960;9.108;2022-07-29T02:23:54;17.40;99.90
3086;DHT22;52812;48.960;9.108;2022-07-29T02:26:23;17.40;99.90
3086;DHT22;52812;48.960;9.108;2022-07-29T02:28:52;17.30;99.90
3086;DHT22;52812;48.960;9.108;2022-07-29T02:31:22;17.30;99.90
3086;DHT22;52812;48.960;9.108;2022-07-29T02:33:48;17.20;99.90
3086;DHT22;52812;48.960;9.108;2022-07-29T02:36:16;17.20;99.90
3086;DHT22;52812;48.960;9.108;2022-07-29T02:38:43;17.10;99.90
3086;DHT22;52812;48.960;9.108;2022-07-29T02:41:50;17.00;99.90
3086;DHT22;52812;48.960;9.108;2022-07-29T02:44:17;16.90;99.90
3086;DHT22;52812;48.960;9.108;2022-07-29T02:46:49;16.90;99.90
3086;DHT22;52812;48.960;9.108;2022-07-29T02:49:37;16.90;99.90
3086;DHT22;52812;48.960;9.108;2022-07-29T02:52:08;16.90;99.90
3086;DHT22;52812;48.960;9.108;2022-07-29T02:57:47;16.70;99.90
3086;DHT22;52812;48.960;9.108;2022-07-29T03:00:15;16.70;99.90
3086;DHT22;52812;48.960;9.108;2022-07-29T03:02:44;16.70;99.90
3086;DHT22;52812;48.960;9.108;2022-07-29T03:05:18;16.70;99.90
3086;DHT22;52812;48.960;9.108;2022-07-29T03:07:49;16.70;99.90
3086;DHT22;52812;48.960;9.108;2022-07-29T03:10:16;16.60;99.90
3086;DHT22;52812;48.960;9.108;2022-07-29T03:12:43;16.60;99.90
3086;DHT22;52812;48.960;9.108;2022-07-29T03:15:10;16.60;99.90
3086;DHT22;52812;48.960;9.108;2022-07-29T03:17:37;16.60;99.90
3086;DHT22;52812;48.960;9.108;2022-07-29T03:20:03;16.50;99.90
3086;DHT22;52812;48.960;9.108;2022-07-29T03:22:29;16.50;99.90
3086;DHT22;52812;48.960;9.108;2022-07-29T03:24:55;16.50;99.90
3086;DHT22;52812;48.960;9.108;2022-07-29T03:27:21;16.40;99.90
3086;DHT22;52812;48.960;9.108;2022-07-29T03:29:46;16.40;99.90
3086;DHT22;52812;48.960;9.108;2022-07-29T03:32:12;16.40;99.90
3086;DHT22;52812;48.960;9.108;2022-07-29T03:34:38;16.40;99.90
3086;DHT22;52812;48.960;9.108;2022-07-29T03:37:04;16.50;99.90
3086;DHT22;52812;48.960;9.108;2022-07-29T03:39:35;16.40;99.90
3086;DHT22;52812;48.960;9.108;2022-07-29T03:42:03;16.40;99.90
3086;DHT22;52812;48.960;9.108;2022-07-29T03:44:31;16.50;99.90
3086;DHT22;52812;48.960;9.108;2022-07-29T03:46:59;16.60;99.90
3086;DHT22;52812;48.960;9.108;2022-07-29T03:49:27;16.60;99.90
3086;DHT22;52812;48.960;9.108;2022-07-29T03:51:54;16.60;99.90
3086;DHT22;52812;48.960;9.108;2022-07-29T03:54:20;16.50;99.90
3086;DHT22;52812;48.960;9.108;2022-07-29T03:56:48;16.50;99.90
3086;DHT22;52812;48.960;9.108;2022-07-29T03:59:15;16.50;99.90
3086;DHT22;52812;48.960;9.108;2022-07-29T04:01:42;16.50;99.90
3086;DHT22;52812;48.960;9.108;2022-07-29T04:04:08;16.50;99.90
3086;DHT22;52812;48.960;9.108;2022-07-29T04:06:41;16.50;99.90
3086;DHT22;52812;48.960;9.108;2022-07-29T04:09:07;16.50;99.90
3086;DHT22;52812;48.960;9.108;2022-07-29T04:11:34;16.60;99.90
3086;DHT22;52812;48.960;9.108;2022-07-29T04:13:59;16.60;99.90
3086;DHT22;52812;48.960;9.108;2022-07-29T04:16:25;16.70;99.90
3086;DHT22;52812;48.960;9.108;2022-07-29T04:18:50;16.80;99.90
3086;DHT22;52812;48.960;9.108;2022-07-29T04:21:16;16.90;99.90
3086;DHT22;52812;48.960;9.108;2022-07-29T04:23:41;16.90;99.90
3086;DHT22;52812;48.960;9.108;2022-07-29T04:26:10;17.10;99.90
3086;DHT22;52812;48.960;9.108;2022-07-29T04:28:36;17.10;99.90
3086;DHT22;52812;48.960;9.108;2022-07-29T04:31:04;17.20;99.90
3086;DHT22;52812;48.960;9.108;2022-07-29T04:33:30;17.20;99.90
3086;DHT22;52812;48.960;9.108;2022-07-29T04:35:55;17.30;99.90
3086;DHT22;52812;48.960;9.108;2022-07-29T04:38:21;17.40;99.90
3086;DHT22;52812;48.960;9.108;2022-07-29T04:40:47;17.50;99.90
3086;DHT22;52812;48.960;9.108;2022-07-29T04:43:13;17.50;99.90
3086;DHT22;52812;48.960;9.108;2022-07-29T04:45:38;17.50;99.90
3086;DHT22;52812;48.960;9.108;2022-07-29T04:48:04;17.50;99.90
3086;DHT22;52812;48.960;9.108;2022-07-29T04:50:30;17.40;99.90
3086;DHT22;52812;48.960;9.108;2022-07-29T04:52:55;17.40;99.90
3086;DHT22;52812;48.960;9.108;2022-07-29T04:55:21;17.50;99.90
3086;DHT22;52812;48.960;9.108;2022-07-29T04:57:46;17.50;99.90
3086;DHT22;52812;48.960;9.108;2022-07-29T05:00:12;17.50;99.90
3086;DHT22;52812;48.960;9.108;2022-07-29T05:02:38;17.40;99.90
3086;DHT22;52812;48.960;9.108;2022-07-29T05:05:04;17.50;99.90
3086;DHT22;52812;48.960;9.108;2022-07-29T05:07:31;17.60;99.90
3086;DHT22;52812;48.960;9.108;2022-07-29T05:09:56;17.80;99.90
3086;DHT22;52812;48.960;9.108;2022-07-29T05:12:23;17.90;99.90
3086;DHT22;52812;48.960;9.108;2022-07-29T05:14:49;18.00;99.90
3086;DHT22;52812;48.960;9.108;2022-07-29T05:17:14;18.20;99.90
3086;DHT22;52812;48.960;9.108;2022-07-29T05:19:40;18.30;99.90
3086;DHT22;52812;48.960;9.108;2022-07-29T05:22:05;18.30;99.90
3086;DHT22;52812;48.960;9.108;2022-07-29T05:24:31;18.40;99.90
3086;DHT22;52812;48.960;9.108;2022-07-29T05:26:56;18.50;99.90
3086;DHT22;52812;48.960;9.108;2022-07-29T05:29:22;18.60;99.90
3086;DHT22;52812;48.960;9.108;2022-07-29T05:31:48;18.70;99.90
3086;DHT22;52812;48.960;9.108;2022-07-29T05:34:13;18.80;99.90
3086;DHT22;52812;48.960;9.108;2022-07-29T05:36:39;18.90;99.90
3086;DHT22;52812;48.960;9.108;2022-07-29T05:39:04;19.00;99.90
3086;DHT22;52812;48.960;9.108;2022-07-29T05:41:33;19.00;99.90
3086;DHT22;52812;48.960;9.108;2022-07-29T05:43:58;19.30;99.90
3086;DHT22;52812;48.960;9.108;2022-07-29T05:46:24;19.30;99.90
3086;DHT22;52812;48.960;9.108;2022-07-29T05:48:55;19.70;99.90
3086;DHT22;52812;48.960;9.108;2022-07-29T05:51:20;19.90;99.90
3086;DHT22;52812;48.960;9.108;2022-07-29T05:53:46;20.50;99.90
3086;DHT22;52812;48.960;9.108;2022-07-29T05:56:12;21.20;99.90
3086;DHT22;52812;48.960;9.108;2022-07-29T05:58:38;21.90;99.90
3086;DHT22;52812;48.960;9.108;2022-07-29T06:01:03;22.10;99.90
3086;DHT22;52812;48.960;9.108;2022-07-29T06:03:29;22.00;99.90
3086;DHT22;52812;48.960;9.108;2022-07-29T06:05:55;22.00;99.90
3086;DHT22;52812;48.960;9.108;2022-07-29T06:08:21;21.50;99.90
3086;DHT22;52812;48.960;9.108;2022-07-29T06:10:46;21.40;99.90
3086;DHT22;52812;48.960;9.108;2022-07-29T06:13:12;21.50;99.90
3086;DHT22;52812;48.960;9.108;2022-07-29T06:15:38;21.70;99.90
3086;DHT22;52812;48.960;9.108;2022-07-29T06:18:03;21.80;99.90
3086;DHT22;52812;48.960;9.108;2022-07-29T06:20:32;21.80;99.90
3086;DHT22;52812;48.960;9.108;2022-07-29T06:22:58;21.70;99.90
3086;DHT22;52812;48.960;9.108;2022-07-29T06:25:24;22.10;99.90
3086;DHT22;52812;48.960;9.108;2022-07-29T06:27:50;22.20;99.90
3086;DHT22;52812;48.960;9.108;2022-07-29T06:30:17;22.40;99.90
3086;DHT22;52812;48.960;9.108;2022-07-29T06:32:42;22.80;99.90
3086;DHT22;52812;48.960;9.108;2022-07-29T06:35:08;22.90;99.90
3086;DHT22;52812;48.960;9.108;2022-07-29T06:37:34;22.70;99.90
3086;DHT22;52812;48.960;9.108;2022-07-29T06:40:00;22.90;99.90
3086;DHT22;52812;48.960;9.108;2022-07-29T06:42:44;22.90;99.90
3086;DHT22;52812;48.960;9.108;2022-07-29T06:45:10;23.20;99.90
3086;DHT22;52812;48.960;9.108;2022-07-29T06:47:36;23.40;99.90
3086;DHT22;52812;48.960;9.108;2022-07-29T06:50:03;23.20;99.90
3086;DHT22;52812;48.960;9.108;2022-07-29T06:52:28;23.10;99.90
3086;DHT22;52812;48.960;9.108;2022-07-29T06:54:54;23.10;99.90
3086;DHT22;52812;48.960;9.108;2022-07-29T06:57:21;23.50;99.90
3086;DHT22;52812;48.960;9.108;2022-07-29T06:59:47;23.50;99.90
3086;DHT22;52812;48.960;9.108;2022-07-29T07:02:13;23.70;99.90
3086;DHT22;52812;48.960;9.108;2022-07-29T07:04:39;24.10;99.90
3086;DHT22;52812;48.960;9.108;2022-07-29T07:07:04;24.50;99.90
3086;DHT22;52812;48.960;9.108;2022-07-29T07:09:30;25.30;99.90
3086;DHT22;52812;48.960;9.108;2022-07-29T07:11:55;26.20;99.90
3086;DHT22;52812;48.960;9.108;2022-07-29T07:14:21;26.60;99.90
3086;DHT22;52812;48.960;9.108;2022-07-29T07:16:46;27.00;99.90
3086;DHT22;52812;48.960;9.108;2022-07-29T07:19:12;27.50;99.90
3086;DHT22;52812;48.960;9.108;2022-07-29T07:21:38;27.70;99.90
3086;DHT22;52812;48.960;9.108;2022-07-29T07:24:04;27.80;99.90
3086;DHT22;52812;48.960;9.108;2022-07-29T07:26:30;27.70;99.90
3086;DHT22;52812;48.960;9.108;2022-07-29T07:28:55;27.70;99.90
3086;DHT22;52812;48.960;9.108;2022-07-29T07:31:21;27.70;99.90
3086;DHT22;52812;48.960;9.108;2022-07-29T07:33:46;28.40;99.90
3086;DHT22;52812;48.960;9.108;2022-07-29T07:36:12;28.70;99.90
3086;DHT22;52812;48.960;9.108;2022-07-29T07:38:38;28.90;99.90
3086;DHT22;52812;48.960;9.108;2022-07-29T07:41:03;28.80;99.90
3086;DHT22;52812;48.960;9.108;2022-07-29T07:43:29;29.10;99.90
3086;DHT22;52812;48.960;9.108;2022-07-29T07:45:54;29.00;99.90
3086;DHT22;52812;48.960;9.108;2022-07-29T07:48:20;28.60;99.90
3086;DHT22;52812;48.960;9.108;2022-07-29T07:50:46;27.80;99.90
3086;DHT22;52812;48.960;9.108;2022-07-29T07:53:11;27.00;99.90
3086;DHT22;52812;48.960;9.108;2022-07-29T07:55:41;26.80;99.90
3086;DHT22;52812;48.960;9.108;2022-07-29T07:58:07;26.60;99.90
3086;DHT22;52812;48.960;9.108;2022-07-29T08:00:32;26.90;99.90
3086;DHT22;52812;48.960;9.108;2022-07-29T08:02:58;27.30;99.90
3086;DHT22;52812;48.960;9.108;2022-07-29T08:05:24;27.70;99.90
3086;DHT22;52812;48.960;9.108;2022-07-29T08:07:49;28.20;99.90
3086;DHT22;52812;48.960;9.108;2022-07-29T08:10:16;28.80;99.90
3086;DHT22;52812;48.960;9.108;2022-07-29T08:13:03;28.70;99.90
3086;DHT22;52812;48.960;9.108;2022-07-29T08:15:29;28.20;99.90
3086;DHT22;52812;48.960;9.108;2022-07-29T08:17:54;28.30;99.90
3086;DHT22;52812;48.960;9.108;2022-07-29T08:20:20;28.20;99.90
3086;DHT22;52812;48.960;9.108;2022-07-29T08:22:46;27.80;99.90
3086;DHT22;52812;48.960;9.108;2022-07-29T08:25:11;27.80;99.90
3086;DHT22;52812;48.960;9.108;2022-07-29T08:27:37;28.50;99.90
3086;DHT22;52812;48.960;9.108;2022-07-29T08:30:03;29.20;99.90
3086;DHT22;52812;48.960;9.108;2022-07-29T08:32:28;29.80;99.90
3086;DHT22;52812;48.960;9.108;2022-07-29T08:34:57;30.30;99.90
3086;DHT22;52812;48.960;9.108;2022-07-29T08:37:23;30.40;99.90
3086;DHT22;52812;48.960;9.108;2022-07-29T08:39:48;30.00;99.90
3086;DHT22;52812;48.960;9.108;2022-07-29T08:42:14;29.80;99.90
3086;DHT22;52812;48.960;9.108;2022-07-29T08:44:42;29.80;99.90
3086;DHT22;52812;48.960;9.108;2022-07-29T08:47:07;29.70;99.90
3086;DHT22;52812;48.960;9.108;2022-07-29T08:49:34;29.30;99.90
3086;DHT22;52812;48.960;9.108;2022-07-29T08:52:00;29.60;99.90
3086;DHT22;52812;48.960;9.108;2022-07-29T08:54:27;29.70;99.90
3086;DHT22;52812;48.960;9.108;2022-07-29T08:56:54;30.10;99.90
3086;DHT22;52812;48.960;9.108;2022-07-29T08:59:22;30.40;99.90
3086;DHT22;52812;48.960;9.108;2022-07-29T09:01:51;30.00;99.90
3086;DHT22;52812;48.960;9.108;2022-07-29T09:04:18;29.80;99.90
3086;DHT22;52812;48.960;9.108;2022-07-29T09:06:46;29.40;99.90
3086;DHT22;52812;48.960;9.108;2022-07-29T09:09:13;28.50;99.90
3086;DHT22;52812;48.960;9.108;2022-07-29T09:11:40;28.40;99.90
3086;DHT22;52812;48.960;9.108;2022-07-29T09:14:06;28.60;99.90
3086;DHT22;52812;48.960;9.108;2022-07-29T09:16:52;28.60;99.90
3086;DHT22;52812;48.960;9.108;2022-07-29T09:19:23;28.40;99.90
3086;DHT22;52812;48.960;9.108;2022-07-29T09:21:49;28.00;99.90
3086;DHT22;52812;48.960;9.108;2022-07-29T09:24:27;27.80;99.90
3086;DHT22;52812;48.960;9.108;2022-07-29T09:26:53;28.10;99.90
3086;DHT22;52812;48.960;9.108;2022-07-29T09:29:21;28.10;99.90
3086;DHT22;52812;48.960;9.108;2022-07-29T09:31:49;28.10;99.90
3086;DHT22;52812;48.960;9.108;2022-07-29T09:34:21;27.90;99.90
3086;DHT22;52812;48.960;9.108;2022-07-29T09:36:49;27.90;99.90
3086;DHT22;52812;48.960;9.108;2022-07-29T09:39:26;27.90;99.90
3086;DHT22;52812;48.960;9.108;2022-07-29T09:41:53;28.30;99.90
3086;DHT22;52812;48.960;9.108;2022-07-29T09:44:19;28.20;99.90
3086;DHT22;52812;48.960;9.108;2022-07-29T09:47:01;28.10;99.90
3086;DHT22;52812;48.960;9.108;2022-07-29T09:49:56;27.80;99.90
3086;DHT22;52812;48.960;9.108;2022-07-29T09:52:27;27.40;99.90
3086;DHT22;52812;48.960;9.108;2022-07-29T09:54:53;27.50;99.90
3086;DHT22;52812;48.960;9.108;2022-07-29T09:57:23;27.90;99.90
3086;DHT22;52812;48.960;9.108;2022-07-29T10:00:05;28.20;99.90
3086;DHT22;52812;48.960;9.108;2022-07-29T10:02:33;28.10;99.90
3086;DHT22;52812;48.960;9.108;2022-07-29T10:05:15;28.30;99.90
3086;DHT22;52812;48.960;9.108;2022-07-29T10:07:48;28.70;99.90
3086;DHT22;52812;48.960;9.108;2022-07-29T10:10:21;28.70;99.90
3086;DHT22;52812;48.960;9.108;2022-07-29T10:12:49;28.80;99.90
3086;DHT22;52812;48.960;9.108;2022-07-29T10:15:15;29.00;99.90
3086;DHT22;52812;48.960;9.108;2022-07-29T10:17:42;29.00;99.90
3086;DHT22;52812;48.960;9.108;2022-07-29T10:20:08;28.50;99.90
3086;DHT22;52812;48.960;9.108;2022-07-29T10:22:34;27.90;99.90
3086;DHT22;52812;48.960;9.108;2022-07-29T10:24:59;27.80;99.90
3086;DHT22;52812;48.960;9.108;2022-07-29T10:27:25;27.80;99.90
3086;DHT22;52812;48.960;9.108;2022-07-29T10:29:51;28.00;99.90
3086;DHT22;52812;48.960;9.108;2022-07-29T10:44:09;28.20;99.60
3086;DHT22;52812;48.960;9.108;2022-07-29T10:46:39;28.20;97.20
3086;DHT22;52812;48.960;9.108;2022-07-29T10:49:13;28.50;95.30
3086;DHT22;52812;48.960;9.108;2022-07-29T10:54:44;28.00;96.90
3086;DHT22;52812;48.960;9.108;2022-07-29T10:57:27;27.90;98.20
3086;DHT22;52812;48.960;9.108;2022-07-29T11:07:38;28.40;98.20
3086;DHT22;52812;48.960;9.108;2022-07-29T11:15:05;28.70;96.20
3086;DHT22;52812;48.960;9.108;2022-07-29T11:23:32;28.70;94.80
3086;DHT22;52812;48.960;9.108;2022-07-29T11:26:19;28.40;94.40
3086;DHT22;52812;48.960;9.108;2022-07-29T11:29:02;28.30;94.20
3086;DHT22;52812;48.960;9.108;2022-07-29T11:45:02;28.80;94.10
3086;DHT22;52812;48.960;9.108;2022-07-29T11:47:31;28.50;93.00
3086;DHT22;52812;48.960;9.108;2022-07-29T11:49:59;28.80;94.80
3086;DHT22;52812;48.960;9.108;2022-07-29T11:52:39;29.20;95.00
3086;DHT22;52812;48.960;9.108;2022-07-29T11:55:10;29.50;93.40
3086;DHT22;52812;48.960;9.108;2022-07-29T11:57:36;29.70;92.30
3086;DHT22;52812;48.960;9.108;2022-07-29T12:00:04;29.80;92.60
3086;DHT22;52812;48.960;9.108;2022-07-29T12:02:43;29.80;93.70
3086;DHT22;52812;48.960;9.108;2022-07-29T12:05:10;29.90;93.00
3086;DHT22;52812;48.960;9.108;2022-07-29T12:07:37;30.10;93.60
3086;DHT22;52812;48.960;9.108;2022-07-29T12:10:04;30.20;92.00
3086;DHT22;52812;48.960;9.108;2022-07-29T12:12:30;30.30;91.60
3086;DHT22;52812;48.960;9.108;2022-07-29T12:14:56;30.30;92.50
3086;DHT22;52812;48.960;9.108;2022-07-29T12:17:32;30.30;92.50
3086;DHT22;52812;48.960;9.108;2022-07-29T12:20:00;30.30;91.70
3086;DHT22;52812;48.960;9.108;2022-07-29T12:22:34;30.30;92.50
3086;DHT22;52812;48.960;9.108;2022-07-29T12:25:05;30.20;92.60
3086;DHT22;52812;48.960;9.108;2022-07-29T12:27:32;30.00;91.50
3086;DHT22;52812;48.960;9.108;2022-07-29T12:30:03;29.80;91.70
3086;DHT22;52812;48.960;9.108;2022-07-29T12:32:38;29.70;91.70
3086;DHT22;52812;48.960;9.108;2022-07-29T12:35:15;29.50;94.30
3086;DHT22;52812;48.960;9.108;2022-07-29T12:37:43;29.50;95.10
3086;DHT22;52812;48.960;9.108;2022-07-29T12:40:10;29.50;95.00
3086;DHT22;52812;48.960;9.108;2022-07-29T12:42:36;29.50;94.70
3086;DHT22;52812;48.960;9.108;2022-07-29T12:45:04;29.50;94.60
3086;DHT22;52812;48.960;9.108;2022-07-29T12:47:29;29.50;95.30
3086;DHT22;52812;48.960;9.108;2022-07-29T12:50:09;29.40;94.90
3086;DHT22;52812;48.960;9.108;2022-07-29T12:52:36;29.40;94.40
3086;DHT22;52812;48.960;9.108;2022-07-29T12:55:02;29.50;94.50
3086;DHT22;52812;48.960;9.108;2022-07-29T12:57:28;29.50;94.50
3086;DHT22;52812;48.960;9.108;2022-07-29T13:00:11;29.60;94.20
3086;DHT22;52812;48.960;9.108;2022-07-29T13:02:39;29.70;94.00
3086;DHT22;52812;48.960;9.108;2022-07-29T13:05:06;29.80;93.70
3086;DHT22;52812;48.960;9.108;2022-07-29T13:07:34;29.80;92.70
3086;DHT22;52812;48.960;9.108;2022-07-29T13:10:17;29.90;92.50
3086;DHT22;52812;48.960;9.108;2022-07-29T13:13:06;29.90;91.70
3086;DHT22;52812;48.960;9.108;2022-07-29T13:15:33;29.70;91.50
3086;DHT22;52812;48.960;9.108;2022-07-29T13:17:59;29.90;91.80
3086;DHT22;52812;48.960;9.108;2022-07-29T13:20:27;29.90;91.50
3086;DHT22;52812;48.960;9.108;2022-07-29T13:22:58;29.60;90.90
3086;DHT22;52812;48.960;9.108;2022-07-29T13:25:29;29.80;91.60
3086;DHT22;52812;48.960;9.108;2022-07-29T13:27:55;30.00;91.40
3086;DHT22;52812;48.960;9.108;2022-07-29T13:30:22;30.00;91.40
3086;DHT22;52812;48.960;9.108;2022-07-29T13:32:49;30.20;92.10
3086;DHT22;52812;48.960;9.108;2022-07-29T13:35:15;30.30;91.30
3086;DHT22;52812;48.960;9.108;2022-07-29T13:37:40;30.20;90.80
3086;DHT22;52812;48.960;9.108;2022-07-29T13:40:08;30.20;91.60
3086;DHT22;52812;48.960;9.108;2022-07-29T13:42:34;30.30;91.30
3086;DHT22;52812;48.960;9.108;2022-07-29T13:45:00;30.30;90.80
3086;DHT22;52812;48.960;9.108;2022-07-29T13:47:26;30.20;90.00
3086;DHT22;52812;48.960;9.108;2022-07-29T13:49:52;30.30;90.50
3086;DHT22;52812;48.960;9.108;2022-07-29T13:52:19;30.30;90.20
3086;DHT22;52812;48.960;9.108;2022-07-29T13:54:45;30.40;90.90
3086;DHT22;52812;48.960;9.108;2022-07-29T13:57:22;30.30;89.60
3086;DHT22;52812;48.960;9.108;2022-07-29T14:00:20;30.20;90.40
3086;DHT22;52812;48.960;9.108;2022-07-29T14:02:49;29.70;88.40
3086;DHT22;52812;48.960;9.108;2022-07-29T14:05:14;29.50;89.20
3086;DHT22;52812;48.960;9.108;2022-07-29T14:07:40;29.20;89.40
3086;DHT22;52812;48.960;9.108;2022-07-29T14:10:06;29.00;90.30
3086;DHT22;52812;48.960;9.108;2022-07-29T14:12:32;29.10;90.10
3086;DHT22;52812;48.960;9.108;2022-07-29T14:14:58;29.10;90.20
3086;DHT22;52812;48.960;9.108;2022-07-29T14:17:23;29.20;90.10
3086;DHT22;52812;48.960;9.108;2022-07-29T14:19:52;29.20;90.10
3086;DHT22;52812;48.960;9.108;2022-07-29T14:22:17;29.10;88.70
3086;DHT22;52812;48.960;9.108;2022-07-29T14:24:44;29.10;88.60
3086;DHT22;52812;48.960;9.108;2022-07-29T14:27:10;29.00;89.10
3086;DHT22;52812;48.960;9.108;2022-07-29T14:29:37;29.10;89.20
3086;DHT22;52812;48.960;9.108;2022-07-29T14:32:03;29.20;90.30
3086;DHT22;52812;48.960;9.108;2022-07-29T14:34:28;29.40;90.40
3086;DHT22;52812;48.960;9.108;2022-07-29T14:36:54;29.20;89.80
3086;DHT22;52812;48.960;9.108;2022-07-29T14:39:21;29.10;89.20
3086;DHT22;52812;48.960;9.108;2022-07-29T14:41:48;29.00;90.20
3086;DHT22;52812;48.960;9.108;2022-07-29T14:44:14;29.10;90.00
3086;DHT22;52812;48.960;9.108;2022-07-29T14:46:39;29.10;90.10
3086;DHT22;52812;48.960;9.108;2022-07-29T14:49:05;29.00;88.70
3086;DHT22;52812;48.960;9.108;2022-07-29T14:51:31;29.00;89.30
3086;DHT22;52812;48.960;9.108;2022-07-29T14:53:57;29.00;90.20
3086;DHT22;52812;48.960;9.108;2022-07-29T14:56:23;29.10;90.30
3086;DHT22;52812;48.960;9.108;2022-07-29T14:58:49;29.00;88.60
3086;DHT22;52812;48.960;9.108;2022-07-29T15:01:14;28.80;89.50
3086;DHT22;52812;48.960;9.108;2022-07-29T15:03:40;28.70;89.20
3086;DHT22;52812;48.960;9.108;2022-07-29T15:06:05;28.70;88.40
3086;DHT22;52812;48.960;9.108;2022-07-29T15:08:31;28.70;89.00
3086;DHT22;52812;48.960;9.108;2022-07-29T15:10:57;28.50;87.70
3086;DHT22;52812;48.960;9.108;2022-07-29T15:13:25;28.30;88.80
3086;DHT22;52812;48.960;9.108;2022-07-29T15:15:50;28.40;87.90
3086;DHT22;52812;48.960;9.108;2022-07-29T15:18:17;28.20;87.10
3086;DHT22;52812;48.960;9.108;2022-07-29T15:20:42;28.20;87.90
3086;DHT22;52812;48.960;9.108;2022-07-29T15:23:10;28.20;87.90
3086;DHT22;52812;48.960;9.108;2022-07-29T15:25:37;28.30;87.10
3086;DHT22;52812;48.960;9.108;2022-07-29T15:28:12;28.10;87.20
3086;DHT22;52812;48.960;9.108;2022-07-29T15:30:38;28.00;87.60
3086;DHT22;52812;48.960;9.108;2022-07-29T15:33:44;28.20;88.30
3086;DHT22;52812;48.960;9.108;2022-07-29T15:36:16;28.10;86.70
3086;DHT22;52812;48.960;9.108;2022-07-29T15:38:41;28.00;85.90
3086;DHT22;52812;48.960;9.108;2022-07-29T15:41:07;28.00;86.70
3086;DHT22;52812;48.960;9.108;2022-07-29T15:43:33;28.00;85.80
3086;DHT22;52812;48.960;9.108;2022-07-29T15:46:01;27.80;86.20
3086;DHT22;52812;48.960;9.108;2022-07-29T15:48:45;27.80;85.80
3086;DHT22;52812;48.960;9.108;2022-07-29T15:51:11;27.80;86.70
3086;DHT22;52812;48.960;9.108;2022-07-29T15:53:37;27.80;86.60
3086;DHT22;52812;48.960;9.108;2022-07-29T15:56:05;27.90;86.60
3086;DHT22;52812;48.960;9.108;2022-07-29T15:58:31;27.80;86.60
3086;DHT22;52812;48.960;9.108;2022-07-29T16:01:14;27.80;87.00
3086;DHT22;52812;48.960;9.108;2022-07-29T16:03:40;27.70;86.70
3086;DHT22;52812;48.960;9.108;2022-07-29T16:06:06;27.80;86.30
3086;DHT22;52812;48.960;9.108;2022-07-29T16:08:32;27.90;86.20
3086;DHT22;52812;48.960;9.108;2022-07-29T16:10:57;28.00;87.60
3086;DHT22;52812;48.960;9.108;2022-07-29T16:13:23;28.00;87.40
3086;DHT22;52812;48.960;9.108;2022-07-29T16:15:48;27.90;85.80
3086;DHT22;52812;48.960;9.108;2022-07-29T16:18:14;28.00;86.70
3086;DHT22;52812;48.960;9.108;2022-07-29T16:20:43;27.90;86.40
3086;DHT22;52812;48.960;9.108;2022-07-29T16:23:12;27.90;86.50
3086;DHT22;52812;48.960;9.108;2022-07-29T16:25:38;27.80;86.80
3086;DHT22;52812;48.960;9.108;2022-07-29T16:28:04;27.80;87.80
3086;DHT22;52812;48.960;9.108;2022-07-29T16:30:30;27.70;85.90
3086;DHT22;52812;48.960;9.108;2022-07-29T16:32:59;27.60;86.50
3086;DHT22;52812;48.960;9.108;2022-07-29T16:35:25;27.70;87.00
3086;DHT22;52812;48.960;9.108;2022-07-29T16:37:51;27.70;87.50
3086;DHT22;52812;48.960;9.108;2022-07-29T16:40:16;27.60;86.90
3086;DHT22;52812;48.960;9.108;2022-07-29T16:42:42;27.70;86.60
3086;DHT22;52812;48.960;9.108;2022-07-29T16:45:08;27.70;86.20
3086;DHT22;52812;48.960;9.108;2022-07-29T16:47:34;27.70;86.50
3086;DHT22;52812;48.960;9.108;2022-07-29T16:49:59;27.80;87.30
3086;DHT22;52812;48.960;9.108;2022-07-29T16:52:25;27.60;87.00
3086;DHT22;52812;48.960;9.108;2022-07-29T16:54:51;27.50;87.10
3086;DHT22;52812;48.960;9.108;2022-07-29T16:57:16;27.50;86.80
3086;DHT22;52812;48.960;9.108;2022-07-29T16:59:42;27.50;87.80